Time;durP1;ratioP1;P1;durP2;ratioP2;P2;SDS_P1;SDS_P2;PMS_P1;PMS_P2;Temp;Humidity;BMP_temperature;BMP_pressure;BME280_temperature;BME280_humidity;BME280_pressure;Samples;Min_cycle;Max_cycle;Signal;HPM_P1;HPM_P2
2023/09/23 00:03:14;;;;;;;21.45;14.88;;;;;;;;;;10460572;22;20018;-93
2023/09/23 00:07:20;;;;;;;22.98;16.17;;;;;;;;;;10370002;22;20023;-94
2023/09/23 00:11:25;;;;;;;29.52;16.55;;;;;;;;;;10364438;22;20062;-95
2023/09/23 00:15:34;;;;;;;29.27;16.88;;;;;;;;;;10391414;22;20016;-94
2023/09/23 00:19:40;;;;;;;27.90;17.15;;;;;;;;;;10364231;22;20042;-92
2023/09/23 00:23:46;;;;;;;27.85;16.40;;;;;;;;;;10365267;22;20015;-94
2023/09/23 00:27:53;;;;;;;33.72;17.33;;;;;;;;;;10410322;22;20042;-95
2023/09/23 00:31:57;;;;;;;27.67;16.60;;;;;;;;;;10409690;22;20046;-95
2023/09/23 00:36:02;;;;;;;24.58;14.90;;;;;;;;;;10365216;22;20016;-93
2023/09/23 00:40:17;;;;;;;23.02;13.73;;;;;;;;;;10367754;22;20016;-94
2023/09/23 00:44:22;;;;;;;19.10;13.45;;;;;;;;;;10392955;22;20015;-95
2023/09/23 00:48:30;;;;;;;18.60;12.38;;;;;;;;;;10367635;22;20073;-94
2023/09/23 00:52:35;;;;;;;15.90;11.77;;;;;;;;;;10367750;22;20015;-93
2023/09/23 00:56:42;;;;;;;26.98;12.77;;;;;;;;;;10368017;22;20015;-94
2023/09/23 01:00:47;;;;;;;20.23;12.27;;;;;;;;;;10367443;22;20118;-93
2023/09/23 01:04:59;;;;;;;22.20;11.68;;;;;;;;;;10408621;22;20019;-93
2023/09/23 01:09:17;;;;;;;18.58;10.68;;;;;;;;;;10418029;22;20065;-95
2023/09/23 01:13:32;;;;;;;20.83;11.25;;;;;;;;;;10419954;22;20023;-94
2023/09/23 01:17:49;;;;;;;16.85;9.98;;;;;;;;;;10418139;22;20015;-94
2023/09/23 01:22:01;;;;;;;17.85;10.27;;;;;;;;;;10418550;22;20039;-95
2023/09/23 01:26:11;;;;;;;16.13;8.73;;;;;;;;;;10418537;22;20094;-94
2023/09/23 01:30:15;;;;;;;17.02;8.98;;;;;;;;;;10418428;22;20015;-95
2023/09/23 01:34:20;;;;;;;16.27;8.30;;;;;;;;;;10420167;22;20016;-94
2023/09/23 01:38:24;;;;;;;16.90;8.70;;;;;;;;;;10448162;22;20015;-93
2023/09/23 01:42:32;;;;;;;20.80;8.32;;;;;;;;;;10445196;22;20018;-94
2023/09/23 01:46:37;;;;;;;14.98;6.95;;;;;;;;;;10419988;22;20015;-95
2023/09/23 01:50:42;;;;;;;17.45;7.72;;;;;;;;;;10420188;22;20016;-95
2023/09/23 01:54:46;;;;;;;19.77;6.85;;;;;;;;;;10445605;22;20015;-94
2023/09/23 01:58:56;;;;;;;19.35;6.90;;;;;;;;;;10417761;22;20053;-94
2023/09/23 02:03:03;;;;;;;11.95;6.10;;;;;;;;;;10417852;22;20015;-94
2023/09/23 02:07:07;;;;;;;17.95;6.35;;;;;;;;;;10444681;22;20026;-94
2023/09/23 02:11:12;;;;;;;11.73;6.43;;;;;;;;;;10417266;22;20049;-95
2023/09/23 02:15:18;;;;;;;15.27;6.88;;;;;;;;;;10417054;22;20065;-94
2023/09/23 02:19:22;;;;;;;12.85;6.55;;;;;;;;;;10444414;22;20156;-95
2023/09/23 02:23:27;;;;;;;16.70;6.72;;;;;;;;;;10417279;22;20015;-94
2023/09/23 02:27:32;;;;;;;17.73;6.65;;;;;;;;;;10416620;22;20068;-94
2023/09/23 02:31:39;;;;;;;17.10;7.72;;;;;;;;;;10444160;22;20015;-94
2023/09/23 02:35:46;;;;;;;12.35;6.95;;;;;;;;;;10461112;22;20015;-94
2023/09/23 02:39:51;;;;;;;11.65;6.60;;;;;;;;;;10455407;22;20015;-95
2023/09/23 02:43:56;;;;;;;15.95;6.28;;;;;;;;;;10417532;22;20064;-93
2023/09/23 02:48:02;;;;;;;13.45;7.32;;;;;;;;;;10444830;22;20332;-94
2023/09/23 02:52:08;;;;;;;13.23;7.13;;;;;;;;;;10417595;22;20023;-93
2023/09/23 02:56:13;;;;;;;14.30;7.22;;;;;;;;;;10416912;22;20015;-92
2023/09/23 03:00:34;;;;;;;18.40;7.95;;;;;;;;;;10438812;22;20043;-93
2023/09/23 03:10:31;;;;;;;15.30;9.63;;;;;;;;;;10365811;22;20069;-93
2023/09/23 03:14:40;;;;;;;15.63;9.85;;;;;;;;;;10416094;22;20015;-94
2023/09/23 03:19:10;;;;;;;16.15;10.13;;;;;;;;;;10416089;22;20022;-94
2023/09/23 03:23:18;;;;;;;17.10;10.75;;;;;;;;;;10417480;22;20019;-95
2023/09/23 03:27:28;;;;;;;17.88;11.65;;;;;;;;;;10415788;22;20015;-93
2023/09/23 03:31:33;;;;;;;18.03;11.87;;;;;;;;;;10460493;22;20012;-95
2023/09/23 03:35:38;;;;;;;24.02;13.20;;;;;;;;;;10442991;22;20093;-93
2023/09/23 03:39:50;;;;;;;29.42;16.15;;;;;;;;;;10441293;22;20016;-94
2023/09/23 03:49:25;;;;;;;27.20;15.82;;;;;;;;;;10442963;22;20014;-92
2023/09/23 03:53:29;;;;;;;26.88;14.90;;;;;;;;;;10415746;22;20072;-94
2023/09/23 03:57:34;;;;;;;26.42;15.65;;;;;;;;;;10444793;22;20015;-93
2023/09/23 04:01:47;;;;;;;22.73;15.18;;;;;;;;;;10415759;22;20022;-94
2023/09/23 04:05:57;;;;;;;20.27;13.73;;;;;;;;;;10416114;22;20066;-94
2023/09/23 04:10:02;;;;;;;24.92;15.07;;;;;;;;;;10460110;22;20023;-94
2023/09/23 04:14:06;;;;;;;24.88;15.48;;;;;;;;;;10416802;22;20015;-93
2023/09/23 04:18:11;;;;;;;25.08;17.27;;;;;;;;;;10415404;22;20015;-94
2023/09/23 04:22:18;;;;;;;30.52;17.60;;;;;;;;;;10414995;22;20015;-93
2023/09/23 04:26:24;;;;;;;30.50;17.25;;;;;;;;;;10460679;22;20015;-91
2023/09/23 04:30:28;;;;;;;38.25;20.83;;;;;;;;;;10415425;22;20023;-94
2023/09/23 04:34:35;;;;;;;37.70;19.70;;;;;;;;;;10443454;22;20018;-93
2023/09/23 04:38:43;;;;;;;43.55;20.30;;;;;;;;;;10459780;22;20015;-94
2023/09/23 04:42:48;;;;;;;38.88;20.45;;;;;;;;;;10415928;22;20053;-94
2023/09/23 04:46:53;;;;;;;39.22;21.17;;;;;;;;;;10414743;22;20102;-94
2023/09/23 04:50:58;;;;;;;43.33;24.40;;;;;;;;;;10415287;22;20015;-94
2023/09/23 04:55:05;;;;;;;43.58;22.15;;;;;;;;;;10416359;22;20019;-92
2023/09/23 04:59:12;;;;;;;41.80;21.15;;;;;;;;;;10460428;22;20022;-93
2023/09/23 05:03:16;;;;;;;46.40;22.65;;;;;;;;;;10415141;22;20080;-93
2023/09/23 05:07:21;;;;;;;43.63;22.30;;;;;;;;;;10414453;22;20015;-93
2023/09/23 05:11:27;;;;;;;44.05;25.27;;;;;;;;;;10414568;22;20015;-93
2023/09/23 05:15:31;;;;;;;42.72;22.13;;;;;;;;;;10414577;22;20015;-93
2023/09/23 05:19:36;;;;;;;42.00;21.73;;;;;;;;;;10415747;22;20019;-94
2023/09/23 05:23:41;;;;;;;38.55;20.17;;;;;;;;;;10416415;22;20045;-95
2023/09/23 05:27:47;;;;;;;35.42;19.88;;;;;;;;;;10420629;22;20081;-94
2023/09/23 05:31:54;;;;;;;34.53;18.95;;;;;;;;;;10419107;22;20026;-91
2023/09/23 05:35:59;;;;;;;38.13;20.88;;;;;;;;;;10418133;22;20050;-94
2023/09/23 05:40:10;;;;;;;34.22;18.20;;;;;;;;;;10418291;22;20073;-94
2023/09/23 05:44:18;;;;;;;29.17;16.97;;;;;;;;;;10421921;22;20015;-94
2023/09/23 05:48:24;;;;;;;31.58;19.13;;;;;;;;;;10420415;22;20015;-94
2023/09/23 05:52:30;;;;;;;30.35;17.17;;;;;;;;;;10419193;22;20019;-95
2023/09/23 05:56:46;;;;;;;29.02;16.05;;;;;;;;;;10419043;22;20015;-93
2023/09/23 06:00:53;;;;;;;27.52;15.88;;;;;;;;;;10418056;22;20015;-94
2023/09/23 06:05:00;;;;;;;32.28;16.13;;;;;;;;;;10418233;22;20015;-94
2023/09/23 06:09:04;;;;;;;33.50;17.70;;;;;;;;;;10420034;22;20094;-95
2023/09/23 06:13:09;;;;;;;25.90;15.32;;;;;;;;;;10419744;22;20069;-95
2023/09/23 06:17:25;;;;;;;27.13;14.65;;;;;;;;;;10419635;22;20042;-94
2023/09/23 06:21:31;;;;;;;23.27;13.85;;;;;;;;;;10451060;22;20015;-94
2023/09/23 06:25:54;;;;;;;24.50;12.10;;;;;;;;;;10430006;22;20081;-94
2023/09/23 06:30:00;;;;;;;17.55;10.02;;;;;;;;;;10342274;22;20076;-93
2023/09/23 06:34:16;;;;;;;23.35;10.05;;;;;;;;;;10464270;22;20036;-94
2023/09/23 06:38:45;;;;;;;16.13;6.90;;;;;;;;;;10446753;22;20324;-94
2023/09/23 06:47:27;;;;;;;9.70;5.40;;;;;;;;;;10289861;23;20103;-94
2023/09/23 06:51:34;;;;;;;12.00;5.68;;;;;;;;;;10289722;23;20087;-94
2023/09/23 06:55:43;;;;;;;14.95;5.82;;;;;;;;;;10263544;23;20025;-96
2023/09/23 06:59:57;;;;;;;13.80;6.18;;;;;;;;;;10262795;23;20016;-94
2023/09/23 07:04:02;;;;;;;11.40;6.45;;;;;;;;;;10262899;23;20016;-95
2023/09/23 07:08:12;;;;;;;10.52;6.13;;;;;;;;;;10264744;23;20016;-96
2023/09/23 07:12:45;;;;;;;10.35;6.18;;;;;;;;;;10289116;23;20077;-95
2023/09/23 07:16:50;;;;;;;12.73;7.03;;;;;;;;;;10288313;23;20028;-95
2023/09/23 07:20:58;;;;;;;9.43;5.75;;;;;;;;;;10306110;23;20020;-93
2023/09/23 07:25:08;;;;;;;9.38;6.07;;;;;;;;;;10427590;22;20019;-93
2023/09/23 07:29:12;;;;;;;10.65;5.70;;;;;;;;;;10416932;22;20019;-93
2023/09/23 07:33:17;;;;;;;9.00;5.85;;;;;;;;;;10416870;22;20023;-93
2023/09/23 07:37:24;;;;;;;8.57;4.88;;;;;;;;;;10422506;22;20022;-95
2023/09/23 07:41:31;;;;;;;6.85;4.57;;;;;;;;;;10460972;22;20015;-92
2023/09/23 07:45:35;;;;;;;7.90;5.20;;;;;;;;;;10463062;22;20011;-92
2023/09/23 07:49:39;;;;;;;9.40;5.03;;;;;;;;;;10415584;22;20064;-91
2023/09/23 07:53:47;;;;;;;8.23;5.32;;;;;;;;;;10418153;22;20042;-96
2023/09/23 07:57:53;;;;;;;6.22;4.68;;;;;;;;;;10290517;22;20025;-92
2023/09/23 08:01:57;;;;;;;9.68;5.60;;;;;;;;;;10294109;22;20018;-93
2023/09/23 08:06:05;;;;;;;13.15;5.93;;;;;;;;;;10291824;22;20085;-94
2023/09/23 08:10:10;;;;;;;8.55;6.38;;;;;;;;;;10415770;22;20015;-93
2023/09/23 08:14:16;;;;;;;9.90;6.78;;;;;;;;;;10447541;22;20015;-93
2023/09/23 08:18:33;;;;;;;9.50;6.45;;;;;;;;;;10293159;22;20072;-94
2023/09/23 08:27:37;;;;;;;7.20;5.15;;;;;;;;;;10449959;22;20077;-96
2023/09/23 08:31:46;;;;;;;8.52;5.65;;;;;;;;;;10295807;22;20029;-93
2023/09/23 08:35:52;;;;;;;9.65;5.68;;;;;;;;;;10301645;22;20056;-94
2023/09/23 08:39:58;;;;;;;8.40;5.70;;;;;;;;;;10419984;22;20015;-95
2023/09/23 08:44:06;;;;;;;8.82;5.68;;;;;;;;;;10290091;22;20024;-94
2023/09/23 08:48:18;;;;;;;8.85;6.00;;;;;;;;;;10293291;22;20021;-95
2023/09/23 09:02:27;;;;;;;8.93;5.50;;;;;;;;;;10398934;22;20023;-95
2023/09/23 09:12:00;;;;;;;7.43;3.90;;;;;;;;;;10428005;22;20022;-95
2023/09/23 09:16:10;;;;;;;6.13;3.97;;;;;;;;;;10424194;22;20026;-95
2023/09/23 09:20:15;;;;;;;6.05;3.80;;;;;;;;;;10293427;22;20018;-96
2023/09/23 09:24:28;;;;;;;7.10;3.40;;;;;;;;;;10207613;23;20017;-95
2023/09/23 09:28:59;;;;;;;5.70;3.65;;;;;;;;;;10294755;22;20037;-95
2023/09/23 09:33:12;;;;;;;5.63;3.08;;;;;;;;;;10292394;22;20026;-94
2023/09/23 09:37:33;;;;;;;5.25;3.35;;;;;;;;;;10440229;22;20095;-94
2023/09/23 09:41:55;;;;;;;5.22;3.05;;;;;;;;;;10291650;22;20025;-94
2023/09/23 09:51:16;;;;;;;5.03;2.70;;;;;;;;;;10396020;22;20066;-95
2023/09/23 09:55:24;;;;;;;4.53;3.08;;;;;;;;;;10367493;22;20339;-93
2023/09/23 09:59:29;;;;;;;4.35;2.60;;;;;;;;;;10367245;22;20141;-93
2023/09/23 10:03:39;;;;;;;5.60;2.95;;;;;;;;;;10366873;22;20016;-93
2023/09/23 10:07:54;;;;;;;4.80;2.93;;;;;;;;;;10365946;22;20062;-92
2023/09/23 10:12:00;;;;;;;5.40;3.47;;;;;;;;;;10366302;22;20016;-93
2023/09/23 10:16:06;;;;;;;5.15;3.50;;;;;;;;;;10410922;22;20046;-93
2023/09/23 10:20:17;;;;;;;4.18;2.95;;;;;;;;;;10411177;22;20015;-93
2023/09/23 10:24:30;;;;;;;4.88;3.08;;;;;;;;;;10410941;22;20019;-92
2023/09/23 10:28:40;;;;;;;6.53;3.00;;;;;;;;;;10365376;22;20074;-93
2023/09/23 10:32:47;;;;;;;4.85;2.95;;;;;;;;;;10367084;22;20027;-95
2023/09/23 10:37:01;;;;;;;4.22;2.72;;;;;;;;;;10264389;22;20018;-94
2023/09/23 10:41:10;;;;;;;5.80;3.10;;;;;;;;;;10266399;22;20018;-96
2023/09/23 10:45:37;;;;;;;7.63;3.72;;;;;;;;;;10156007;23;20021;-96
2023/09/23 10:49:50;;;;;;;11.55;4.93;;;;;;;;;;10240363;23;20025;-92
2023/09/23 10:54:09;;;;;;;10.02;4.55;;;;;;;;;;10158974;23;20032;-95
2023/09/23 10:58:29;;;;;;;5.63;3.72;;;;;;;;;;10238761;23;20022;-95
2023/09/23 11:13:23;;;;;;;8.23;4.43;;;;;;;;;;10343241;22;20129;-93
2023/09/23 11:23:54;;;;;;;8.55;3.70;;;;;;;;;;10439440;22;20034;-93
2023/09/23 11:32:30;;;;;;;7.10;4.25;;;;;;;;;;10414359;22;20076;-93
2023/09/23 11:42:19;;;;;;;8.02;3.80;;;;;;;;;;10444354;22;20021;-93
2023/09/23 11:46:26;;;;;;;6.82;4.07;;;;;;;;;;10415967;22;20045;-94
2023/09/23 11:50:33;;;;;;;6.30;3.60;;;;;;;;;;10415905;22;20015;-93
2023/09/23 11:54:37;;;;;;;6.35;3.78;;;;;;;;;;10460242;22;20039;-92
2023/09/23 11:58:41;;;;;;;5.75;3.88;;;;;;;;;;10416755;22;20019;-92
2023/09/23 12:02:48;;;;;;;7.75;4.57;;;;;;;;;;10415049;22;20015;-93
2023/09/23 12:06:54;;;;;;;5.88;4.00;;;;;;;;;;10415660;22;20015;-94
2023/09/23 12:11:00;;;;;;;8.43;4.95;;;;;;;;;;10416785;22;20071;-94
2023/09/23 12:15:05;;;;;;;8.73;5.18;;;;;;;;;;10416321;22;20026;-94
2023/09/23 12:19:09;;;;;;;7.78;4.90;;;;;;;;;;10415278;22;20015;-94
2023/09/23 12:23:16;;;;;;;8.07;5.60;;;;;;;;;;10445946;22;20003;-92
2023/09/23 12:27:46;;;;;;;8.68;4.93;;;;;;;;;;10408700;22;20076;-95
2023/09/23 12:31:51;;;;;;;7.80;5.25;;;;;;;;;;10444252;22;20011;-92
2023/09/23 12:35:55;;;;;;;7.38;4.72;;;;;;;;;;10418306;22;20065;-92
2023/09/23 12:40:04;;;;;;;13.05;6.63;;;;;;;;;;10447064;22;20045;-91
2023/09/23 12:44:08;;;;;;;11.30;6.95;;;;;;;;;;10418658;22;20015;-93
2023/09/23 12:48:12;;;;;;;10.00;7.25;;;;;;;;;;10418427;22;20047;-92
2023/09/23 12:52:21;;;;;;;10.10;7.75;;;;;;;;;;10443961;22;20015;-92
2023/09/23 12:56:31;;;;;;;12.57;8.38;;;;;;;;;;10426963;22;20016;-92
2023/09/23 13:00:53;;;;;;;8.90;6.20;;;;;;;;;;10424639;22;20021;-93
2023/09/23 13:05:31;;;;;;;10.65;7.22;;;;;;;;;;10454786;22;20015;-95
2023/09/23 13:09:40;;;;;;;13.00;7.72;;;;;;;;;;10447396;22;20544;-92
2023/09/23 13:13:48;;;;;;;15.18;9.18;;;;;;;;;;10487738;22;20090;-92
2023/09/23 13:17:56;;;;;;;13.40;9.38;;;;;;;;;;10441876;22;20019;-92
2023/09/23 13:22:14;;;;;;;15.20;9.68;;;;;;;;;;10412174;22;20019;-92
2023/09/23 13:26:48;;;;;;;15.35;9.63;;;;;;;;;;10447566;22;20026;-93
2023/09/23 13:36:07;;;;;;;15.43;10.48;;;;;;;;;;10445816;22;20338;-92
2023/09/23 13:40:13;;;;;;;20.70;9.30;;;;;;;;;;10417300;22;20015;-95
2023/09/23 13:49:04;;;;;;;11.77;9.20;;;;;;;;;;10446128;22;20025;-93
2023/09/23 13:53:16;;;;;;;11.15;7.50;;;;;;;;;;10461729;22;20049;-92
2023/09/23 14:23:43;;;;;;;9.45;6.30;;;;;;;;;;10393142;22;19913;-93
2023/09/23 14:27:48;;;;;;;14.02;7.90;;;;;;;;;;10394321;22;20018;-92
2023/09/23 14:32:03;;;;;;;8.98;5.93;;;;;;;;;;10365733;22;20016;-92
2023/09/23 14:37:12;;;;;;;10.57;7.50;;;;;;;;;;10392654;22;20019;-91
2023/09/23 14:41:29;;;;;;;12.77;7.47;;;;;;;;;;10366186;22;20027;-91
2023/09/23 14:56:07;;;;;;;14.23;8.63;;;;;;;;;;10389341;22;20073;-92
2023/09/23 15:00:34;;;;;;;15.43;7.95;;;;;;;;;;10238812;23;20018;-90
2023/09/23 15:05:14;;;;;;;23.70;9.90;;;;;;;;;;10237660;23;20017;-91
2023/09/23 15:15:01;;;;;;;18.67;9.63;;;;;;;;;;10138970;23;20087;-94
2023/09/23 15:23:47;;;;;;;20.80;11.20;;;;;;;;;;10230896;23;20021;-92
2023/09/23 15:28:05;;;;;;;21.40;11.48;;;;;;;;;;10238566;23;20018;-91
2023/09/23 15:32:24;;;;;;;12.63;7.95;;;;;;;;;;10239136;23;20068;-94
2023/09/23 16:06:56;;;;;;;10.82;6.82;;;;;;;;;;10294282;23;20027;-95
2023/09/23 16:11:35;;;;;;;;;;;;;;;;;;;;;
2023/09/23 16:15:59;;;;;;;17.00;8.50;;;;;;;;;;10280017;23;20012;-92
2023/09/23 16:30:23;;;;;;;25.17;13.15;;;;;;;;;;10417572;22;20034;-92
2023/09/23 16:34:58;;;;;;;21.88;12.23;;;;;;;;;;10445373;22;20011;-92
2023/09/23 16:39:12;;;;;;;21.90;12.10;;;;;;;;;;10416107;22;20069;-91
2023/09/23 16:43:29;;;;;;;16.83;9.55;;;;;;;;;;10463331;22;20011;-93
2023/09/23 16:47:45;;;;;;;15.70;9.63;;;;;;;;;;10418295;22;20015;-95
2023/09/23 16:52:03;;;;;;;15.85;8.48;;;;;;;;;;10425317;22;20015;-95
2023/09/23 16:56:17;;;;;;;13.05;7.88;;;;;;;;;;10471207;22;20007;-92
2023/09/23 17:00:24;;;;;;;14.45;8.43;;;;;;;;;;10456846;22;20073;-94
2023/09/23 17:04:35;;;;;;;15.00;8.82;;;;;;;;;;10468600;22;20374;-93
2023/09/23 17:24:16;;;;;;;23.55;10.63;;;;;;;;;;10447980;22;20053;-95
2023/09/23 17:28:22;;;;;;;25.67;14.27;;;;;;;;;;10426527;22;20022;-93
2023/09/23 17:32:28;;;;;;;23.92;12.52;;;;;;;;;;10398012;22;20045;-93
2023/09/23 17:41:41;;;;;;;26.95;12.32;;;;;;;;;;10289306;22;20017;-94
2023/09/23 17:45:48;;;;;;;26.25;12.13;;;;;;;;;;10290710;22;20032;-95
2023/09/23 17:49:53;;;;;;;23.50;12.80;;;;;;;;;;10293773;22;20074;-93
2023/09/23 17:54:00;;;;;;;27.55;13.98;;;;;;;;;;10206793;23;20017;-95
2023/09/23 17:58:10;;;;;;;26.52;13.98;;;;;;;;;;10292035;22;20079;-95
2023/09/23 18:02:17;;;;;;;30.48;14.85;;;;;;;;;;10291102;22;20025;-92
2023/09/23 18:06:25;;;;;;;28.40;14.23;;;;;;;;;;10205596;23;20096;-94
2023/09/23 18:10:35;;;;;;;33.17;13.73;;;;;;;;;;10291654;22;20018;-96
2023/09/23 18:14:43;;;;;;;34.92;14.20;;;;;;;;;;10291881;22;20017;-96
2023/09/23 18:18:49;;;;;;;33.10;14.25;;;;;;;;;;10292281;22;20075;-96
2023/09/23 18:22:56;;;;;;;33.58;14.70;;;;;;;;;;10290912;22;20045;-93
2023/09/23 18:27:03;;;;;;;37.42;16.90;;;;;;;;;;10289394;22;20017;-93
2023/09/23 18:36:01;;;;;;;33.08;13.77;;;;;;;;;;10197904;22;20052;-94
2023/09/23 18:40:08;;;;;;;30.25;13.68;;;;;;;;;;10462565;22;20068;-93
2023/09/23 18:44:15;;;;;;;25.42;12.40;;;;;;;;;;10461976;22;20022;-94
2023/09/23 18:48:24;;;;;;;22.88;12.02;;;;;;;;;;10462691;22;20083;-92
2023/09/23 18:52:31;;;;;;;28.58;12.27;;;;;;;;;;10417341;22;20015;-92
2023/09/23 18:56:41;;;;;;;25.10;12.18;;;;;;;;;;10416861;22;20023;-91
2023/09/23 19:00:48;;;;;;;32.50;13.02;;;;;;;;;;10418529;22;20037;-95
2023/09/23 19:04:57;;;;;;;31.40;11.88;;;;;;;;;;10464863;22;20020;-93
2023/09/23 19:09:04;;;;;;;25.75;11.65;;;;;;;;;;10340835;23;20020;-93
2023/09/23 19:13:12;;;;;;;31.33;12.90;;;;;;;;;;10314004;23;20016;-92
2023/09/23 19:17:19;;;;;;;28.65;12.70;;;;;;;;;;10341953;23;20020;-93
2023/09/23 19:21:29;;;;;;;32.40;12.70;;;;;;;;;;10316189;23;20016;-90
2023/09/23 19:25:44;;;;;;;35.50;13.02;;;;;;;;;;10318010;23;20016;-96
2023/09/23 19:29:52;;;;;;;42.23;13.07;;;;;;;;;;10321549;23;20016;-96
2023/09/23 19:34:08;;;;;;;42.10;14.38;;;;;;;;;;10404764;22;20022;-95
2023/09/23 19:43:57;;;;;;;45.40;14.93;;;;;;;;;;10439057;22;20045;-95
2023/09/23 19:48:27;;;;;;;56.80;16.27;;;;;;;;;;10466492;22;20015;-95
2023/09/23 19:52:44;;;;;;;56.05;17.23;;;;;;;;;;10379383;22;20035;-95
2023/09/23 19:57:02;;;;;;;46.45;16.20;;;;;;;;;;10424830;22;20096;-94
2023/09/23 20:01:14;;;;;;;65.03;18.58;;;;;;;;;;10467825;22;20022;-96
2023/09/23 20:20:36;;;;;;;48.15;17.73;;;;;;;;;;10459011;22;20042;-93
2023/09/23 20:36:09;;;;;;;52.15;18.30;;;;;;;;;;10358261;23;20023;-95
2023/09/23 20:40:15;;;;;;;;;;;;;;;;;;10379208;23;20016;-95
2023/09/23 20:44:53;;;;;;;51.17;19.60;;;;;;;;;;10346623;23;19918;-96
2023/09/23 20:48:59;;;;;;;61.72;23.33;;;;;;;;;;10323054;23;20024;-95
2023/09/23 20:53:07;;;;;;;71.15;23.65;;;;;;;;;;10318921;23;20020;-95
2023/09/23 20:57:13;;;;;;;67.63;24.20;;;;;;;;;;10364064;23;20285;-96
2023/09/23 21:01:19;;;;;;;77.13;24.90;;;;;;;;;;10319307;23;20016;-94
2023/09/23 21:05:24;;;;;;;65.25;24.75;;;;;;;;;;10317748;23;20027;-94
2023/09/23 21:09:30;;;;;;;80.78;26.48;;;;;;;;;;10342262;23;20016;-93
2023/09/23 21:13:35;;;;;;;63.10;26.00;;;;;;;;;;10360185;23;20016;-94
2023/09/23 21:17:40;;;;;;;55.20;24.73;;;;;;;;;;10316509;23;20020;-93
2023/09/23 21:21:44;;;;;;;53.88;23.70;;;;;;;;;;10316746;23;20042;-92
2023/09/23 21:25:53;;;;;;;54.95;26.35;;;;;;;;;;10316496;23;20016;-93
2023/09/23 21:29:58;;;;;;;53.05;25.50;;;;;;;;;;10316232;23;20016;-94
2023/09/23 21:34:03;;;;;;;44.63;25.50;;;;;;;;;;10316564;23;20066;-94
2023/09/23 21:38:08;;;;;;;49.13;24.30;;;;;;;;;;10316445;23;20020;-93
2023/09/23 21:42:26;;;;;;;45.08;23.92;;;;;;;;;;10316208;23;20074;-93
2023/09/23 21:46:55;;;;;;;40.53;23.85;;;;;;;;;;10343372;22;20214;-95
2023/09/23 21:51:01;;;;;;;37.58;23.90;;;;;;;;;;10417884;22;20065;-93
2023/09/23 21:55:05;;;;;;;46.45;25.77;;;;;;;;;;10418219;22;20086;-94
2023/09/23 21:59:12;;;;;;;50.15;28.65;;;;;;;;;;10418971;22;20041;-96
2023/09/23 22:03:16;;;;;;;50.22;29.77;;;;;;;;;;10465224;22;20015;-95
2023/09/23 22:07:22;;;;;;;52.92;29.00;;;;;;;;;;10420593;22;20015;-95
2023/09/23 22:11:27;;;;;;;59.58;30.17;;;;;;;;;;10420830;22;20023;-95
2023/09/23 22:15:33;;;;;;;63.40;28.35;;;;;;;;;;10421549;22;20019;-95
2023/09/23 22:19:39;;;;;;;65.30;29.92;;;;;;;;;;10465645;22;20041;-96
2023/09/23 22:23:44;;;;;;;70.78;31.15;;;;;;;;;;10421470;22;20016;-95
2023/09/23 22:27:49;;;;;;;65.63;27.38;;;;;;;;;;10418889;22;20019;-95
2023/09/23 22:31:55;;;;;;;70.32;30.33;;;;;;;;;;10419497;22;20015;-94
2023/09/23 22:36:00;;;;;;;61.28;28.67;;;;;;;;;;10446327;22;20007;-95
2023/09/23 22:40:09;;;;;;;64.57;28.10;;;;;;;;;;10419962;22;20019;-96
2023/09/23 22:44:13;;;;;;;66.85;28.75;;;;;;;;;;10419726;22;20031;-95
2023/09/23 22:48:21;;;;;;;57.33;26.17;;;;;;;;;;10383193;22;20020;-95
2023/09/23 22:52:28;;;;;;;61.90;27.00;;;;;;;;;;10370295;22;20077;-95
2023/09/23 22:56:34;;;;;;;53.97;24.60;;;;;;;;;;10394410;22;20428;-93
2023/09/23 23:00:40;;;;;;;51.30;25.00;;;;;;;;;;10365863;22;20050;-95
2023/09/23 23:04:48;;;;;;;43.78;22.05;;;;;;;;;;10366292;22;20030;-93
2023/09/23 23:08:53;;;;;;;49.30;24.08;;;;;;;;;;10366675;22;20015;-94
2023/09/23 23:12:58;;;;;;;58.35;24.85;;;;;;;;;;10366778;22;20023;-93
2023/09/23 23:17:03;;;;;;;60.15;23.77;;;;;;;;;;10366590;22;20016;-93
2023/09/23 23:21:10;;;;;;;58.50;24.23;;;;;;;;;;10410598;22;20012;-93
2023/09/23 23:25:15;;;;;;;51.95;23.40;;;;;;;;;;10364811;22;20027;-93
2023/09/23 23:29:19;;;;;;;56.70;23.30;;;;;;;;;;10364522;22;20015;-92
2023/09/23 23:33:24;;;;;;;42.10;22.83;;;;;;;;;;10364750;22;20020;-92
2023/09/23 23:37:31;;;;;;;44.15;22.83;;;;;;;;;;10391980;22;20011;-92
2023/09/23 23:41:38;;;;;;;43.20;21.75;;;;;;;;;;10409851;22;20065;-94
2023/09/23 23:45:43;;;;;;;40.83;23.52;;;;;;;;;;10411378;22;20004;-93
2023/09/23 23:49:50;;;;;;;39.50;23.20;;;;;;;;;;10460482;22;20015;-94
2023/09/23 23:54:00;;;;;;;42.67;24.90;;;;;;;;;;10461768;22;20022;-92
2023/09/23 23:58:05;;;;;;;44.88;24.42;;;;;;;;;;10416308;22;20016;-94
